x

Stonewall Bank - 20nm West Of Newport, Or (46050) Wave Buoy

2:50pm - Sat 6th Feb 2016 All times are PST. -8 hours from GMT.

  • Sig Wave height 10.5ft
  • Swell Direction
  • Peak Period 13s
  • Average Period 9s
  • Wind
    11mph, 16mph gusts
  • Sea Temp 52°f
  • Air Temp 52°f
  • Sea Pressure 1028.6mb
  • Stonewall Bank - 20nm West Of Newport, Or
  • Stonewall Bank - 20nm West Of Newport, Or

More Historic Weather Station data

Upgrade to MSW Pro to gain access to the past 30 days of data for over 8000 Wavebouys and Weather Stations around the globe.

Join Pro

Comparision Forecast

View Surf forecast
   
Sat 02/06 2:50pm 10.5ft 13s 9s 11 16 mph 1028.6mb 52f 52f
1:50pm 12ft 13s 10s 11 16 mph 1029.3mb 52f 51f
12:50pm 11ft 14s 9s 9 13 mph 1029.7mb 52f 51f
11:50am 11ft 13s 9s 11 16 mph 1030.5mb 52f 51f
10:50am 12ft 11s 9s 9 13 mph 1030.6mb 52f 50f
9:50am 10.5ft 13s 8s 7 11 mph 1031.2mb 52f 49f
8:50am 12ft 13s 9s 7 13 mph 1030.7mb 52f 51f
7:50am 12ft 12s 9s 4 7 mph 1030.7mb 52f 51f
6:50am 12ft 13s 9s 4 7 mph 1030.8mb 52f 51f
5:50am 11.5ft 12s 9s 4 7 mph 1030.7mb 52f 51f
4:50am 12ft 13s 9s 4 9 mph 1030.5mb 52f 52f
3:50am 12ft 14s 9s 7 11 mph 1029.7mb 52f 52f
2:50am 11.5ft 14s 9s 9 13 mph 1029.4mb 52f 52f
1:50am 12ft 14s 9s 11 13 mph 1029.3mb 52f 52f
12:50am 11ft 15s 8s 11 16 mph 1029.1mb 52f 52f
Fri 02/05 11:50pm 13ft 15s 9s 13 16 mph 1028.5mb 52f 52f
10:50pm 12.5ft 15s 8s 13 18 mph 1028.2mb 52f 52f
9:50pm 14ft 14s 9s 11 16 mph 1027.4mb 52f 52f
8:50pm 17ft 15s 9s 16 18 mph 1026.5mb 52f 52f
7:50pm 16.5ft 13s 9s 20 27 mph 1025.9mb 52f 53f
6:50pm 15.5ft 14s 8s 18 22 mph 1025mb 53f 53f
5:50pm 18ft 14s 9s 18 25 mph 1023.5mb 53f 53f
4:50pm 17ft 12s 8s 25 31 mph 1022.7mb 53f 52f
3:50pm 20.5ft 14s 9s 34 43 mph 1020.5mb 53f 53f
2:50pm 16ft 14s 8s 34 43 mph 1019.7mb 53f 54f
1:50pm 17ft 14s 8s 36 43 mph 1019.6mb 53f 53f
12:50pm 15ft 14s 8s 36 45 mph 1020.8mb 53f 54f
11:50am 15ft 14s 8s 36 43 mph 1020.8mb 52f 53f
10:50am 13.5ft 14s 8s 31 38 mph 1020.8mb 52f 53f
9:50am 13ft 15s 8s 29 38 mph 1021.9mb 52f 54f
8:50am 12ft 15s 8s 29 36 mph 1021.7mb 52f 53f
7:50am 11ft 15s 8s 22 27 mph 1022.3mb 52f 53f
6:50am 12ft 15s 8s 22 27 mph 1022.8mb 52f 53f
5:50am 11.5ft 14s 9s 22 25 mph 1023.6mb 52f 53f
4:50am 13.5ft 16s 10s 20 27 mph 1024.4mb 52f 53f
3:50am 13ft 16s 10s 20 22 mph 1024.7mb 52f 53f
2:50am 12.5ft 16s 9s 20 25 mph 1024.9mb 52f 53f
1:50am 13.5ft 16s 10s 20 22 mph 1025.3mb 52f 53f
12:50am 13.5ft 15s 10s 20 25 mph 1025.4mb 52f 53f
Thu 02/04 11:50pm 15.5ft 16s 11s 18 22 mph 1025.4mb 52f 53f
10:50pm 13ft 16s 10s 16 18 mph 1025.6mb 52f 53f
9:50pm 14ft 15s 10s 16 18 mph 1026.1mb 52f 53f
8:50pm 15.5ft 15s 10s 16 22 mph 1026.5mb 52f 53f
7:50pm 14.5ft 16s 10s 13 18 mph 1027.4mb 52f 53f
6:50pm 13ft 15s 9s 16 20 mph 1028mb 52f 53f
5:50pm 16.5ft 16s 11s 18 22 mph 1028.7mb 52f 52f
4:50pm 15.5ft 16s 10s 18 22 mph 1029.2mb 52f 53f
3:50pm 15.5ft 17s 10s 18 22 mph 1029.3mb 52f 53f
2:50pm 15.5ft 17s 10s 16 20 mph 1029.6mb 52f 53f
1:50pm 16ft 17s 11s 18 20 mph 1029.8mb 52f 53f
12:50pm 14ft 17s 9s 18 20 mph 1029.4mb 52f 53f
11:50am 15.5ft 17s 10s 18 22 mph 1029.4mb 52f 53f
10:50am 16.5ft 19s 10s 20 25 mph 1029.2mb 52f 53f
9:50am 15.5ft 17s 10s 20 22 mph 1028.7mb 52f 53f
8:50am 15.5ft 19s 10s 20 25 mph 1028mb 52f 53f
7:50am 16.5ft 19s 10s 20 25 mph 1027.4mb 52f 53f
6:50am 19.5ft 19s 11s 20 25 mph 1026.6mb 52f 53f
5:50am 17ft 19s 11s 20 27 mph 1026.3mb 52f 53f
4:50am 17ft 19s 11s 20 25 mph 1026.2mb 52f 53f
3:50am 17.5ft 17s 11s 20 25 mph 1025.9mb 52f 53f
2:50am 16.5ft 19s 11s 18 22 mph 1025.5mb 52f 53f
1:50am 14ft 19s 9s 22 27 mph 1024.7mb 52f 53f
12:50am 13.5ft 19s 9s 25 29 mph 1024.2mb 52f 53f
Wed 02/03 11:50pm 13.5ft 19s 9s 27 31 mph 1023.5mb 52f 53f
10:50pm 11.5ft 19s 8s 27 31 mph 1022.9mb 52f 53f
9:50pm 11ft 19s 8s 25 34 mph 1022.4mb 52f 53f
8:50pm 11ft 10s 8s 25 31 mph 1021.5mb 52f 52f
7:50pm 11ft 21s 8s 22 27 mph 1021.6mb 52f 53f
6:50pm 11ft 9s 7s 22 29 mph 1021.2mb 52f 52f
5:50pm 11ft 9s 7s 22 27 mph 1020.5mb 52f 52f
4:50pm 12.5ft 10s 8s 22 27 mph 1019.8mb 52f 52f
3:50pm 13ft 10s 8s 22 27 mph 1018.3mb 52f 51f
2:50pm 14ft 10s 8s 22 29 mph 1016.2mb 52f 50f
1:50pm 13.5ft 8s 7s 31 38 mph 1013.9mb 52f 51f
12:50pm 12.5ft 9s 7s 34 43 mph 1014.4mb 52f 50f
11:50am 11ft 8s 7s 31 38 mph 1015mb 52f 51f
10:50am 11ft 8s 6s 29 36 mph 1015.4mb 52f 51f
9:50am 10.5ft 8s 6s 29 36 mph 1016mb 52f 51f
8:50am 9.5ft 8s 6s 29 34 mph 1016.4mb 52f 50f
7:50am 9.5ft 7s 6s 27 31 mph 1017mb 52f 50f
6:50am 9ft 11s 6s 31 38 mph 1017.6mb 53f 49f
5:50am 8.5ft 9s 6s 27 31 mph 1018.3mb 52f 49f
4:50am 8ft 10s 6s 27 34 mph 1019mb 53f 49f
3:50am 8ft 10s 6s 22 29 mph 1019.4mb 53f 49f
2:50am 8ft 11s 7s 22 27 mph 1020mb 53f 51f
1:50am 8ft 10s 7s 22 27 mph 1020.3mb 53f 50f
12:50am 9ft 10s 7s 25 27 mph 1020.7mb 53f 50f